createdAt,value
2019-05-16T00:02:31.357Z,53.72
2019-05-16T00:05:14.220Z,54.14
2019-05-16T00:08:04.689Z,54.67
2019-05-16T00:10:48.713Z,54.88
2019-05-16T00:13:39.139Z,54.71
2019-05-16T00:16:21.759Z,54.77
2019-05-16T00:19:12.180Z,54.88
2019-05-16T00:21:55.419Z,55.20
2019-05-16T00:24:45.779Z,55.32
2019-05-16T00:27:29.007Z,55.45
2019-05-16T00:30:19.488Z,55.61
2019-05-16T00:33:02.098Z,55.66
2019-05-16T00:36:02.446Z,55.79
2019-05-16T00:38:57.855Z,55.79
2019-05-16T00:41:48.326Z,55.73
2019-05-16T00:44:30.952Z,55.63
2019-05-16T00:47:21.419Z,55.55
2019-05-16T00:50:04.549Z,56.20
2019-05-16T00:52:54.939Z,56.16
2019-05-16T00:55:38.928Z,55.93
2019-05-16T00:58:22.472Z,55.99
2019-05-16T01:01:12.917Z,56.00
2019-05-16T01:04:03.283Z,55.97
2019-05-16T01:06:48.372Z,55.35
2019-05-16T01:09:38.755Z,55.72
2019-05-16T01:12:21.709Z,55.84
2019-05-16T01:15:12.178Z,55.79
2019-05-16T01:17:55.512Z,55.99
2019-05-16T01:20:47.888Z,55.94
2019-05-16T01:23:50.179Z,55.71
2019-05-16T01:26:40.561Z,55.42
2019-05-16T01:29:23.271Z,55.07
2019-05-16T01:32:13.651Z,54.56
2019-05-16T01:34:58.766Z,54.35
2019-05-16T01:37:48.921Z,54.25
2019-05-16T01:40:53.519Z,53.51
2019-05-16T01:43:43.882Z,53.47
2019-05-16T01:46:28.500Z,53.82
2019-05-16T01:49:18.912Z,53.92
2019-05-16T01:52:02.263Z,54.13
2019-05-16T01:54:52.656Z,54.76
2019-05-16T01:57:35.990Z,55.02
2019-05-16T02:00:25.137Z,55.33
2019-05-16T02:03:11.218Z,55.20
2019-05-16T02:05:54.538Z,55.45
2019-05-16T02:08:44.907Z,55.70
2019-05-16T02:11:28.497Z,55.91
2019-05-16T02:14:18.995Z,56.00
2019-05-16T02:17:01.740Z,55.67
2019-05-16T02:19:52.094Z,55.46
2019-05-16T02:22:35.088Z,55.65
2019-05-16T02:25:27.591Z,56.30
2019-05-16T02:28:39.242Z,56.03
2019-05-16T02:31:22.958Z,56.32
2019-05-16T02:34:26.565Z,56.09
2019-05-16T02:37:25.885Z,56.09
2019-05-16T02:40:23.598Z,56.21
2019-05-16T02:43:13.967Z,56.25
2019-05-16T02:45:56.932Z,56.30
2019-05-16T02:49:00.810Z,56.43
2019-05-16T02:51:51.144Z,56.34
2019-05-16T02:54:54.627Z,56.18
2019-05-16T02:57:44.980Z,56.04
2019-05-16T03:03:40.363Z,55.35
2019-05-16T03:06:43.047Z,55.57
2019-05-16T03:09:53.871Z,55.61
2019-05-16T03:12:44.308Z,54.70
2019-05-16T03:15:34.676Z,54.66
2019-05-16T03:18:21.316Z,54.65
2019-05-16T03:21:30.915Z,54.76
2019-05-16T03:24:34.879Z,54.38
2019-05-16T03:27:25.263Z,53.37
2019-05-16T03:30:14.366Z,53.37
2019-05-16T03:33:05.131Z,53.51
2019-05-16T03:36:05.722Z,53.10
2019-05-16T03:38:56.095Z,53.25
2019-05-16T03:41:41.459Z,53.04
2019-05-16T03:44:23.880Z,52.15
2019-05-16T03:47:14.245Z,51.24
2019-05-16T03:50:17.360Z,51.33
2019-05-16T03:53:07.731Z,51.70
2019-05-16T03:55:51.627Z,50.95
2019-05-16T03:58:34.788Z,51.35
2019-05-16T04:01:25.176Z,50.26
2019-05-16T04:04:11.373Z,49.91
2019-05-16T04:07:01.355Z,49.37
2019-05-16T04:10:05.081Z,49.79
2019-05-16T04:12:55.439Z,49.52
2019-05-16T04:16:01.234Z,49.04
2019-05-16T04:18:51.391Z,48.83
2019-05-16T04:21:55.208Z,48.93
2019-05-16T04:24:45.585Z,49.28
2019-05-16T04:27:30.941Z,48.92
2019-05-16T04:30:22.037Z,48.79
2019-05-16T04:33:25.495Z,49.09
2019-05-16T04:36:15.841Z,49.34
2019-05-16T04:39:01.814Z,49.25
2019-05-16T04:41:51.444Z,49.30
2019-05-16T04:44:34.373Z,48.98
2019-05-16T04:47:24.734Z,48.61
2019-05-16T04:50:11.241Z,48.46
2019-05-16T04:53:01.415Z,48.58
2019-05-16T04:56:04.811Z,48.89
2019-05-16T04:58:55.191Z,48.58
2019-05-16T05:01:41.073Z,48.43
2019-05-16T05:04:30.805Z,48.58
2019-05-16T05:07:34.422Z,48.57
2019-05-16T05:10:24.799Z,48.68
2019-05-16T05:13:10.789Z,48.57
2019-05-16T05:16:01.314Z,48.32
2019-05-16T05:19:04.849Z,48.37
2019-05-16T05:21:55.198Z,47.91
2019-05-16T05:24:40.419Z,48.41
2019-05-16T05:27:30.462Z,48.78
2019-05-16T05:30:33.681Z,48.73
2019-05-16T05:33:24.119Z,49.37
2019-05-16T05:36:06.969Z,49.59
2019-05-16T05:39:09.082Z,50.28
2019-05-16T05:42:01.523Z,51.55
2019-05-16T05:44:44.331Z,52.77
2019-05-16T05:50:44.942Z,52.70
2019-05-16T05:53:35.290Z,52.62
2019-05-16T05:56:19.733Z,52.57
2019-05-16T05:59:11.371Z,53.35
2019-05-16T06:02:14.948Z,52.46
2019-05-16T06:04:46.222Z,52.97
2019-05-16T06:07:36.627Z,52.97
2019-05-16T06:10:19.941Z,54.67
2019-05-16T06:13:11.063Z,54.34
2019-05-16T06:16:15.384Z,53.87
2019-05-16T06:19:05.749Z,52.89
2019-05-16T06:21:50.331Z,52.48
2019-05-16T06:24:40.691Z,51.78
2019-05-16T06:27:23.977Z,51.94
2019-05-16T06:30:14.363Z,50.21
2019-05-16T06:32:57.096Z,50.44
2019-05-16T06:35:47.510Z,50.08
2019-05-16T06:38:30.157Z,51.38
2019-05-16T06:41:20.565Z,50.30
2019-05-16T06:44:03.574Z,51.11
2019-05-16T06:47:09.060Z,50.18
2019-05-16T06:50:00.253Z,50.22
2019-05-16T06:52:51.089Z,50.25
2019-05-16T06:55:34.569Z,48.14
2019-05-16T06:58:24.999Z,47.62
2019-05-16T07:01:09.694Z,47.30
2019-05-16T07:04:00.201Z,47.26
2019-05-16T07:07:04.188Z,45.83
2019-05-16T07:10:01.711Z,45.68
2019-05-16T07:13:00.786Z,47.64
2019-05-16T07:15:51.218Z,45.68
2019-05-16T07:18:35.347Z,45.63
2019-05-16T07:21:20.192Z,45.26
2019-05-16T07:24:10.933Z,44.35
2019-05-16T07:27:14.581Z,43.90
2019-05-16T07:30:05.325Z,44.44
2019-05-16T07:32:50.046Z,43.81
2019-05-16T07:35:40.235Z,44.40
2019-05-16T07:38:23.313Z,43.95
2019-05-16T07:41:14.125Z,42.74
2019-05-16T07:44:20.398Z,43.00
2019-05-16T07:47:11.287Z,43.88
2019-05-16T07:50:15.101Z,42.30
2019-05-16T07:53:05.513Z,42.13
2019-05-16T07:55:50.589Z,43.21
2019-05-16T07:58:33.017Z,43.36
2019-05-16T08:01:23.421Z,43.16
2019-05-16T08:04:06.605Z,42.86
2019-05-16T08:06:56.999Z,43.18
2019-05-16T08:09:40.043Z,41.90
2019-05-16T08:12:32.994Z,41.93
2019-05-16T08:15:35.324Z,41.71
2019-05-16T08:18:25.693Z,39.65
2019-05-16T08:21:10.950Z,38.76
2019-05-16T08:24:07.471Z,38.83
2019-05-16T08:27:06.352Z,38.54
2019-05-16T08:29:56.776Z,39.09
2019-05-16T08:32:42.098Z,39.41
2019-05-16T08:35:31.774Z,39.35
2019-05-16T08:38:15.231Z,38.79
2019-05-16T08:44:35.092Z,39.05
2019-05-16T08:47:25.610Z,39.38
2019-05-16T08:50:13.922Z,40.15
2019-05-16T08:52:54.205Z,40.93
2019-05-16T08:56:03.451Z,41.84
2019-05-16T08:58:46.470Z,41.76
2019-05-16T09:01:36.824Z,42.54
2019-05-16T09:04:43.920Z,42.97
2019-05-16T09:07:32.397Z,42.00
2019-05-16T09:10:45.899Z,41.46
2019-05-16T09:13:07.443Z,41.20
2019-05-16T09:15:50.799Z,41.14
2019-05-16T09:18:45.554Z,41.01
2019-05-16T09:21:47.478Z,41.43
2019-05-16T09:24:38.068Z,41.47
2019-05-16T09:27:21.541Z,41.39
2019-05-16T09:30:12.095Z,41.05
2019-05-16T09:32:55.350Z,40.51
2019-05-16T09:35:47.687Z,40.42
2019-05-16T09:38:49.997Z,40.53
2019-05-16T09:41:54.539Z,39.80
2019-05-16T09:44:47.570Z,38.97
2019-05-16T09:47:39.140Z,38.41
2019-05-16T09:50:43.143Z,37.89
2019-05-16T09:53:33.540Z,36.94
2019-05-16T09:56:16.827Z,36.44
2019-05-16T09:59:07.370Z,36.01
2019-05-16T10:01:50.767Z,36.57
2019-05-16T10:04:41.133Z,35.94
2019-05-16T10:07:23.709Z,36.47
2019-05-16T10:10:14.172Z,36.16
2019-05-16T10:12:57.176Z,35.91
2019-05-16T10:15:47.585Z,35.97
2019-05-16T10:18:30.279Z,35.54
2019-05-16T10:21:20.816Z,34.34
2019-05-16T10:24:03.495Z,33.50
2019-05-16T10:26:54.316Z,33.82
2019-05-16T10:30:01.172Z,35.08
2019-05-16T10:32:50.282Z,35.69
2019-05-16T10:35:32.903Z,36.03
2019-05-16T10:38:23.318Z,36.14
2019-05-16T10:41:07.328Z,35.99
2019-05-16T10:43:57.843Z,35.92
2019-05-16T10:46:40.549Z,35.78
2019-05-16T10:49:37.291Z,35.58
2019-05-16T10:52:37.314Z,35.46
2019-05-16T10:55:20.132Z,35.42
2019-05-16T10:58:10.593Z,34.78
2019-05-16T11:01:22.434Z,34.63
2019-05-16T11:03:48.840Z,34.90
2019-05-16T11:06:50.084Z,35.06
2019-05-16T11:09:53.495Z,35.04
2019-05-16T11:12:51.178Z,35.25
2019-05-16T11:15:37.415Z,35.31
2019-05-16T11:18:41.857Z,35.66
2019-05-16T11:21:32.242Z,36.52
2019-05-16T11:24:15.408Z,37.07
2019-05-16T11:26:47.351Z,37.03
2019-05-16T11:29:51.683Z,37.76
2019-05-16T11:32:42.084Z,37.77
2019-05-16T11:35:27.234Z,37.87
2019-05-16T11:38:17.991Z,38.19
2019-05-16T11:41:01.831Z,38.17
2019-05-16T11:43:52.243Z,38.47
2019-05-16T11:46:37.431Z,38.11
2019-05-16T11:49:27.673Z,38.00
2019-05-16T11:52:31.651Z,38.00
2019-05-16T11:55:22.246Z,38.05
2019-05-16T11:58:06.759Z,37.73
2019-05-16T12:00:57.710Z,38.00
2019-05-16T12:04:01.933Z,38.96
2019-05-16T12:06:52.313Z,38.24
2019-05-16T12:09:46.602Z,38.79
2019-05-16T12:12:27.849Z,39.13
2019-05-16T12:15:11.058Z,39.10
2019-05-16T12:18:05.013Z,38.85
2019-05-16T12:21:07.697Z,38.23
2019-05-16T12:23:58.353Z,37.42
2019-05-16T12:26:41.670Z,37.37
2019-05-16T12:29:32.051Z,37.56
2019-05-16T12:32:03.515Z,38.18
2019-05-16T12:34:54.124Z,38.07
2019-05-16T12:37:44.557Z,38.92
2019-05-16T12:40:49.593Z,38.77
2019-05-16T12:43:48.938Z,39.49
2019-05-16T12:46:47.260Z,39.79
2019-05-16T12:49:36.988Z,43.30
2019-05-16T12:52:20.407Z,44.63
2019-05-16T12:55:10.899Z,46.61
2019-05-16T12:57:58.738Z,47.22
2019-05-16T13:00:37.326Z,46.99
2019-05-16T13:03:27.940Z,47.65
2019-05-16T13:06:10.413Z,48.99
2019-05-16T13:09:00.798Z,49.87
2019-05-16T13:11:43.756Z,47.76
2019-05-16T13:14:37.303Z,47.27
2019-05-16T13:17:38.574Z,45.53
2019-05-16T13:20:28.952Z,45.30
2019-05-16T13:23:18.088Z,45.41
2019-05-16T13:26:07.022Z,45.37
2019-05-16T13:29:09.310Z,44.00
2019-05-16T13:31:59.663Z,44.24
2019-05-16T13:34:43.143Z,43.76
2019-05-16T13:37:33.547Z,44.39
2019-05-16T13:40:17.416Z,44.21
2019-05-16T13:43:10.174Z,44.49
2019-05-16T13:46:12.403Z,44.59
2019-05-16T13:48:54.959Z,44.60
2019-05-16T13:51:45.320Z,45.10
2019-05-16T13:54:28.395Z,44.68
2019-05-16T13:57:18.760Z,44.64
2019-05-16T14:00:01.750Z,44.44
2019-05-16T14:02:52.140Z,44.68
2019-05-16T14:05:37.890Z,44.37
2019-05-16T14:08:27.644Z,44.46
2019-05-16T14:11:10.922Z,44.14
2019-05-16T14:14:04.589Z,44.06
2019-05-16T14:17:14.134Z,44.43
2019-05-16T14:19:58.194Z,44.68
2019-05-16T14:22:41.591Z,44.65
2019-05-16T14:25:31.988Z,44.60
2019-05-16T14:28:17.125Z,44.71
2019-05-16T14:31:07.524Z,44.61
2019-05-16T14:33:50.808Z,45.13
2019-05-16T14:36:41.191Z,44.77
2019-05-16T14:39:28.130Z,44.18
2019-05-16T14:42:08.858Z,44.54
2019-05-16T14:45:10.386Z,43.59
2019-05-16T14:48:06.862Z,43.11
2019-05-16T14:50:57.472Z,43.28
2019-05-16T14:54:01.107Z,43.68
2019-05-16T14:56:51.496Z,43.60
2019-05-16T14:59:56.569Z,43.92
2019-05-16T15:02:47.999Z,44.70
2019-05-16T15:05:54.808Z,45.02
2019-05-16T15:08:43.545Z,45.17
2019-05-16T15:11:28.179Z,45.10
2019-05-16T15:14:18.271Z,45.23
2019-05-16T15:17:01.778Z,44.75
2019-05-16T15:19:52.146Z,44.70
2019-05-16T15:22:38.347Z,45.06
2019-05-16T15:25:28.198Z,45.32
2019-05-16T15:28:11.145Z,44.51
2019-05-16T15:31:01.505Z,43.62
2019-05-16T15:33:44.719Z,43.17
2019-05-16T15:36:37.259Z,43.10
2019-05-16T15:39:39.871Z,43.48
2019-05-16T15:42:30.224Z,43.49
2019-05-16T15:45:17.616Z,43.28
2019-05-16T15:48:08.575Z,42.44
2019-05-16T15:51:11.451Z,42.86
2019-05-16T15:57:31.039Z,44.00
2019-05-16T16:03:47.277Z,45.36
2019-05-16T16:06:49.847Z,45.85
2019-05-16T16:09:40.333Z,46.00
2019-05-16T16:12:23.351Z,46.11
2019-05-16T16:15:13.765Z,46.51
2019-05-16T16:17:58.838Z,46.67
2019-05-16T16:20:49.224Z,47.29
2019-05-16T16:23:32.384Z,47.28
2019-05-16T16:26:22.776Z,47.63
2019-05-16T16:29:07.301Z,48.15
2019-05-16T16:31:57.821Z,48.29
2019-05-16T16:34:41.299Z,49.04
2019-05-16T16:37:31.715Z,49.25
2019-05-16T16:40:17.402Z,49.16
2019-05-16T16:43:07.935Z,49.68
2019-05-16T16:46:13.538Z,50.26
2019-05-16T16:48:57.428Z,50.63
2019-05-16T16:51:48.219Z,51.21
2019-05-16T16:54:52.010Z,51.59
2019-05-16T16:57:42.384Z,51.75
2019-05-16T17:00:28.006Z,52.01
2019-05-16T17:03:17.774Z,52.33
2019-05-16T17:06:21.259Z,52.74
2019-05-16T17:09:11.641Z,53.18
2019-05-16T17:11:57.023Z,53.52
2019-05-16T17:14:47.038Z,54.30
2019-05-16T17:17:29.997Z,55.04
2019-05-16T17:20:20.717Z,55.92
2019-05-16T17:23:03.622Z,56.65
2019-05-16T17:25:56.428Z,57.31
2019-05-16T17:28:58.388Z,57.66
2019-05-16T17:31:55.809Z,57.85
2019-05-16T17:34:55.384Z,58.30
2019-05-16T17:37:46.671Z,58.67
2019-05-16T17:40:49.953Z,59.04
2019-05-16T17:43:59.375Z,59.21
2019-05-16T17:46:42.105Z,59.93
2019-05-16T17:49:32.533Z,60.24
2019-05-16T17:52:16.553Z,60.35
2019-05-16T17:55:27.831Z,60.87
2019-05-16T17:58:10.608Z,61.10
2019-05-16T18:01:01.053Z,61.35
2019-05-16T18:03:44.440Z,61.68
2019-05-16T18:06:36.972Z,61.87
2019-05-16T18:09:43.028Z,62.32
2019-05-16T18:12:52.931Z,62.63
2019-05-16T18:15:36.734Z,63.12
2019-05-16T18:18:19.435Z,62.81
2019-05-16T18:21:09.869Z,62.81
2019-05-16T18:23:52.902Z,63.41
2019-05-16T18:26:43.377Z,64.01
2019-05-16T18:29:36.352Z,64.43
2019-05-16T18:32:38.458Z,64.75
2019-05-16T18:35:28.810Z,66.16
2019-05-16T18:38:13.125Z,67.75
2019-05-16T18:44:21.705Z,70.22
2019-05-16T18:47:34.472Z,71.62
2019-05-16T18:50:18.389Z,73.08
2019-05-16T18:53:09.405Z,75.03
2019-05-16T18:55:52.629Z,75.59
2019-05-16T18:58:43.084Z,76.04
2019-05-16T19:01:26.938Z,76.23
2019-05-16T19:04:17.798Z,76.70
2019-05-16T19:07:27.318Z,76.81
2019-05-16T19:10:31.146Z,77.57
2019-05-16T19:13:21.624Z,77.83
2019-05-16T19:16:12.112Z,77.79
2019-05-16T19:18:56.554Z,78.09
2019-05-16T19:21:47.057Z,78.81
2019-05-16T19:24:29.886Z,79.37
2019-05-16T19:30:41.188Z,80.27
2019-05-16T19:33:24.681Z,80.00
2019-05-16T19:36:16.524Z,80.46
2019-05-16T19:39:19.235Z,81.01
2019-05-16T19:42:09.700Z,81.31
2019-05-16T19:44:52.776Z,81.69
2019-05-16T19:47:43.246Z,81.59
2019-05-16T19:50:26.703Z,81.38
2019-05-16T19:53:17.285Z,81.83
2019-05-16T19:56:00.773Z,82.33
2019-05-16T19:58:51.260Z,82.56
2019-05-16T20:01:22.603Z,82.19
2019-05-16T20:04:15.468Z,82.28
2019-05-16T20:07:26.378Z,82.42
2019-05-16T20:10:29.659Z,82.80
2019-05-16T20:13:19.519Z,83.02
2019-05-16T20:16:02.024Z,83.02
2019-05-16T20:18:46.626Z,82.86
2019-05-16T20:21:40.377Z,82.96
2019-05-16T20:24:42.808Z,82.79
2019-05-16T20:27:33.285Z,83.49
2019-05-16T20:30:17.097Z,83.46
2019-05-16T20:33:09.546Z,83.71
2019-05-16T20:36:12.310Z,83.76
2019-05-16T20:39:02.800Z,84.35
2019-05-16T20:41:47.524Z,84.07
2019-05-16T20:44:38.075Z,84.51
2019-05-16T20:47:20.835Z,84.78
2019-05-16T20:50:30.545Z,85.04
2019-05-16T20:53:13.772Z,85.27
2019-05-16T20:56:06.434Z,85.46
2019-05-16T20:59:08.685Z,85.28
2019-05-16T21:02:01.245Z,85.01
2019-05-16T21:04:32.615Z,85.19
2019-05-16T21:07:23.016Z,84.93
2019-05-16T21:10:07.912Z,85.04
2019-05-16T21:12:58.098Z,85.29
2019-05-16T21:15:41.029Z,85.69
2019-05-16T21:18:31.696Z,86.05
2019-05-16T21:21:16.614Z,86.25
2019-05-16T21:24:07.090Z,86.06
2019-05-16T21:27:11.069Z,86.14
2019-05-16T21:30:01.459Z,86.60
2019-05-16T21:32:46.996Z,86.67
2019-05-16T21:35:36.795Z,85.42
2019-05-16T21:38:19.928Z,85.69
2019-05-16T21:41:10.375Z,86.62
2019-05-16T21:44:13.137Z,87.04
2019-05-16T21:47:03.567Z,87.33
2019-05-16T21:49:47.186Z,87.80
2019-05-16T21:52:37.755Z,87.76
2019-05-16T21:55:20.812Z,86.97
2019-05-16T21:58:11.208Z,87.45
2019-05-16T22:00:56.685Z,87.47
2019-05-16T22:03:47.232Z,88.18
2019-05-16T22:06:30.034Z,88.45
2019-05-16T22:09:14.315Z,88.82
2019-05-16T22:12:06.676Z,88.82
2019-05-16T22:15:09.058Z,89.01
2019-05-16T22:17:59.434Z,88.71
2019-05-16T22:20:42.543Z,88.89
2019-05-16T22:23:32.953Z,88.70
2019-05-16T22:26:17.310Z,88.86
2019-05-16T22:29:00.331Z,88.78
2019-05-16T22:31:50.743Z,87.86
2019-05-16T22:34:34.263Z,86.25
2019-05-16T22:37:17.389Z,87.12
2019-05-16T22:40:08.070Z,87.58
2019-05-16T22:42:51.313Z,86.75
2019-05-16T22:45:41.680Z,86.76
2019-05-16T22:48:26.529Z,87.33
2019-05-16T22:51:09.302Z,87.49
2019-05-16T22:53:59.659Z,87.32
2019-05-16T22:56:42.427Z,87.92
2019-05-16T22:59:32.811Z,88.48
2019-05-16T23:02:16.812Z,88.13
2019-05-16T23:05:07.553Z,88.27
2019-05-16T23:08:02.133Z,87.92
2019-05-16T23:10:42.896Z,88.08
2019-05-16T23:13:26.618Z,87.75
2019-05-16T23:16:17.301Z,87.51
2019-05-16T23:19:00.047Z,87.69
2019-05-16T23:21:50.391Z,88.35
2019-05-16T23:24:33.593Z,88.49
2019-05-16T23:27:23.969Z,88.00
2019-05-16T23:30:07.628Z,88.25
2019-05-16T23:32:58.028Z,88.72
2019-05-16T23:35:40.668Z,88.37
2019-05-16T23:38:31.021Z,88.84
2019-05-16T23:41:14.547Z,88.98
2019-05-16T23:44:07.263Z,88.70
2019-05-16T23:47:10.152Z,89.55
2019-05-16T23:50:00.501Z,89.22
2019-05-16T23:52:43.434Z,88.57
2019-05-16T23:55:33.819Z,88.51
2019-05-16T23:58:16.397Z,88.46
